Time;durP1;ratioP1;P1;durP2;ratioP2;P2;SDS_P1;SDS_P2;PMS_P1;PMS_P2;Temp;Humidity;BMP_temperature;BMP_pressure;BME280_temperature;BME280_humidity;BME280_pressure;Samples;Min_cycle;Max_cycle;Signal;HPM_P1;HPM_P2
2023/08/09 00:00:14;;;;;;;1.92;1.73;;;;;;;15.97;66.84;96605.81;4905107;29;20053;-80
2023/08/09 00:02:45;;;;;;;2.55;2.10;;;;;;;15.94;67.32;96593.06;4905439;29;20056;-80
2023/08/09 00:05:13;;;;;;;3.65;2.25;;;;;;;15.92;67.45;96603.00;4905381;29;20057;-79
2023/08/09 00:07:41;;;;;;;3.83;2.05;;;;;;;15.89;67.43;96601.63;4903991;29;20526;-80
2023/08/09 00:10:10;;;;;;;3.85;2.00;;;;;;;15.87;67.37;96606.28;4904284;29;20048;-79
2023/08/09 00:12:38;;;;;;;3.28;2.15;;;;;;;15.86;67.47;96594.97;4904315;29;20056;-79
2023/08/09 00:15:07;;;;;;;4.65;1.98;;;;;;;15.86;67.51;96597.59;4903991;29;20053;-80
2023/08/09 00:17:37;;;;;;;2.15;1.42;;;;;;;15.88;67.60;96596.59;4904383;29;20045;-80
2023/08/09 00:20:13;;;;;;;2.58;2.17;;;;;;;15.87;67.56;96593.13;4904709;29;20112;-80
2023/08/09 00:22:42;;;;;;;1.95;1.70;;;;;;;15.86;67.43;96596.78;4904936;29;20062;-80
2023/08/09 00:25:12;;;;;;;5.65;1.85;;;;;;;15.86;67.77;96594.16;4904246;29;20131;-79
2023/08/09 00:27:41;;;;;;;2.38;1.83;;;;;;;15.84;67.59;96585.69;4904394;29;20061;-80
2023/08/09 00:30:12;;;;;;;2.53;1.80;;;;;;;15.84;67.81;96599.63;4913476;29;20052;-81
2023/08/09 00:43:45;;;;;;;2.58;1.77;;;;;;;15.83;67.74;96599.84;4996970;23;20060;-80
2023/08/09 00:46:13;;;;;;;1.70;1.58;;;;;;;15.84;67.97;96596.19;4917676;29;20342;-80
2023/08/09 00:48:41;;;;;;;4.03;1.50;;;;;;;15.84;67.97;96596.19;4916022;29;20056;-80
2023/08/09 00:51:09;;;;;;;2.85;1.77;;;;;;;15.84;67.79;96590.94;4916139;29;20430;-80
2023/08/09 00:53:37;;;;;;;5.28;1.73;;;;;;;15.83;67.90;96594.56;4916738;29;20056;-80
2023/08/09 01:59:23;;;;;;;2.63;2.17;;;;;;;15.47;73.94;96556.59;4897932;29;20062;-80
2023/08/09 02:08:35;;;;;;;3.35;2.10;;;;;;;15.24;74.26;96554.56;5329210;23;20036;-80
2023/08/09 02:11:05;;;;;;;5.05;2.72;;;;;;;15.21;74.91;96554.97;4924734;29;20040;-80
2023/08/09 02:13:34;;;;;;;3.95;2.33;;;;;;;15.19;74.89;96551.75;4924950;29;20033;-80
2023/08/09 02:16:05;;;;;;;2.42;2.00;;;;;;;15.17;75.04;96557.19;4924651;29;20033;-81
2023/08/09 02:18:34;;;;;;;4.93;1.65;;;;;;;15.16;75.22;96563.47;4924714;29;20234;-78
2023/08/09 02:21:02;;;;;;;2.88;2.17;;;;;;;15.17;75.54;96575.59;4924063;29;20053;-78
2023/08/09 02:23:30;;;;;;;2.97;1.98;;;;;;;15.17;75.67;96565.06;4923481;29;20040;-78
2023/08/09 02:25:58;;;;;;;3.05;1.60;;;;;;;15.21;75.36;96578.59;4923138;29;20037;-78
2023/08/09 02:28:26;;;;;;;3.03;1.70;;;;;;;15.27;76.23;96584.84;4923257;29;20048;-78
2023/08/09 02:30:54;;;;;;;2.58;1.85;;;;;;;15.28;75.93;96592.50;4923311;29;20036;-78
2023/08/09 02:33:23;;;;;;;4.22;2.25;;;;;;;15.34;78.18;96585.59;4923124;29;20036;-78
2023/08/09 02:35:55;;;;;;;2.35;1.88;;;;;;;15.41;77.59;96597.72;4923205;29;20033;-78
2023/08/09 02:38:23;;;;;;;2.67;2.20;;;;;;;15.48;79.44;96600.28;4923045;29;20067;-78
2023/08/09 02:40:51;;;;;;;4.13;1.90;;;;;;;15.51;77.36;96597.22;4923007;29;20065;-78
2023/08/09 02:43:20;;;;;;;2.60;1.90;;;;;;;15.53;77.16;96597.81;4922887;29;20039;-78
2023/08/09 02:45:48;;;;;;;2.38;2.03;;;;;;;15.56;76.84;96599.22;4922971;29;20064;-78
2023/08/09 02:48:16;;;;;;;5.40;2.55;;;;;;;15.56;76.29;96609.72;4922906;29;20075;-78
2023/08/09 02:50:45;;;;;;;3.28;2.03;;;;;;;15.61;77.43;96608.09;4922809;29;20033;-78
2023/08/09 02:53:16;;;;;;;3.05;2.28;;;;;;;15.64;77.73;96605.00;4922915;29;20029;-78
2023/08/09 02:55:44;;;;;;;3.60;2.13;;;;;;;15.69;78.83;96600.94;4922758;29;20045;-78
2023/08/09 02:58:12;;;;;;;3.67;1.95;;;;;;;15.71;76.68;96599.75;4922829;29;20052;-78
2023/08/09 03:00:40;;;;;;;2.13;1.92;;;;;;;15.73;77.94;96610.06;4922655;29;20107;-78
2023/08/09 03:03:08;;;;;;;2.50;1.90;;;;;;;15.72;77.04;96600.53;4922518;29;20079;-77
2023/08/09 03:05:41;;;;;;;2.25;1.85;;;;;;;15.67;76.88;96609.03;4922003;29;20036;-78
2023/08/09 03:08:10;;;;;;;3.10;2.30;;;;;;;15.64;77.66;96609.47;4922572;29;20067;-78
2023/08/09 03:10:39;;;;;;;2.90;2.63;;;;;;;15.66;78.46;96610.06;4922869;29;20032;-78
2023/08/09 03:13:07;;;;;;;2.75;2.10;;;;;;;15.66;77.45;96608.25;4922602;29;20040;-78
2023/08/09 03:15:35;;;;;;;3.75;2.22;;;;;;;15.63;77.40;96606.06;4922682;29;20071;-78
2023/08/09 03:18:04;;;;;;;3.63;2.33;;;;;;;15.63;77.51;96611.31;4922730;29;20036;-78
2023/08/09 03:20:34;;;;;;;3.47;2.38;;;;;;;15.65;78.68;96606.66;4922750;29;20029;-78
2023/08/09 03:23:04;;;;;;;3.08;2.72;;;;;;;15.69;79.03;96608.84;4922953;29;20084;-78
2023/08/09 03:25:34;;;;;;;3.47;2.63;;;;;;;15.68;77.89;96609.84;4922768;29;20032;-78
2023/08/09 03:28:02;;;;;;;5.47;2.75;;;;;;;15.66;77.59;96604.81;4922912;29;20047;-78
2023/08/09 03:30:30;;;;;;;4.28;3.30;;;;;;;15.66;78.48;96608.25;4922674;29;20056;-77
2023/08/09 03:32:58;;;;;;;3.20;2.90;;;;;;;15.64;77.82;96599.75;4922627;29;20056;-79
2023/08/09 03:35:27;;;;;;;3.50;2.55;;;;;;;15.64;77.40;96601.59;4922737;29;20040;-78
2023/08/09 03:37:55;;;;;;;4.40;2.92;;;;;;;15.61;77.63;96599.38;4922655;29;20040;-78
2023/08/09 03:40:23;;;;;;;6.95;2.25;;;;;;;15.58;77.36;96603.22;4922506;29;20071;-78
2023/08/09 03:42:52;;;;;;;4.35;2.33;;;;;;;15.56;76.90;96607.09;4922557;29;20072;-80
2023/08/09 03:45:22;;;;;;;2.90;2.03;;;;;;;15.51;77.10;96597.22;4922592;29;20056;-79
2023/08/09 03:47:50;;;;;;;2.47;1.90;;;;;;;15.51;77.30;96602.47;4922449;29;20060;-78
2023/08/09 03:50:18;;;;;;;3.10;2.05;;;;;;;15.49;77.43;96599.25;4922318;29;20070;-78
2023/08/09 03:52:45;;;;;;;2.30;1.77;;;;;;;15.49;77.19;96599.25;4922424;29;20041;-77
2023/08/09 03:55:13;;;;;;;3.50;1.98;;;;;;;15.49;77.83;96604.50;4922316;29;20040;-79
2023/08/09 03:57:41;;;;;;;3.40;2.10;;;;;;;15.50;77.60;96600.06;4922561;29;20097;-78
2023/08/09 04:00:17;;;;;;;4.63;2.28;;;;;;;15.52;78.21;96603.28;4922373;29;20070;-78
2023/08/09 04:02:45;;;;;;;2.25;2.08;;;;;;;15.56;79.86;96604.47;4922360;29;20036;-78
2023/08/09 04:05:15;;;;;;;2.17;1.83;;;;;;;15.56;78.12;96607.91;4922085;29;20029;-78
2023/08/09 04:07:43;;;;;;;3.08;1.77;;;;;;;15.57;77.18;96609.53;4921993;29;20041;-78
2023/08/09 04:10:12;;;;;;;2.25;1.70;;;;;;;15.59;76.47;96604.03;4922204;29;20087;-77
2023/08/09 04:12:40;;;;;;;3.10;2.10;;;;;;;15.59;76.70;96610.13;4922098;29;20028;-78
2023/08/09 04:15:10;;;;;;;3.47;1.90;;;;;;;15.58;76.44;96608.50;4922078;29;20067;-78
2023/08/09 04:17:40;;;;;;;3.30;2.30;;;;;;;15.61;79.06;96602.81;4925754;29;20040;-78
2023/08/09 04:20:11;;;;;;;2.47;2.00;;;;;;;15.63;77.01;96607.84;4925556;29;20059;-78
2023/08/09 04:22:40;;;;;;;5.50;2.15;;;;;;;15.64;78.39;96599.75;4925585;29;20041;-78
2023/08/09 04:25:10;;;;;;;2.40;1.92;;;;;;;15.65;76.77;96601.38;4925265;29;20044;-78
2023/08/09 04:27:40;;;;;;;4.18;1.95;;;;;;;15.64;76.41;96597.13;4925540;29;20119;-78
2023/08/09 04:30:10;;;;;;;2.97;1.80;;;;;;;15.66;76.38;96589.84;4925287;29;20053;-78
2023/08/09 04:32:39;;;;;;;1.88;1.77;;;;;;;15.70;77.87;96581.50;4925277;29;20049;-78
2023/08/09 04:35:09;;;;;;;2.72;1.80;;;;;;;15.72;76.43;96582.13;4925236;29;20149;-78
2023/08/09 04:37:38;;;;;;;2.63;2.00;;;;;;;15.74;77.79;96585.34;4919252;29;20037;-77
2023/08/09 04:40:10;;;;;;;1.67;1.58;;;;;;;15.76;77.07;96578.06;4912328;29;20032;-78
2023/08/09 04:42:40;;;;;;;2.80;1.83;;;;;;;15.76;77.06;96578.06;4925068;29;20056;-78
2023/08/09 04:45:09;;;;;;;6.43;1.60;;;;;;;15.75;75.70;96576.47;4924957;29;20047;-78
2023/08/09 04:47:39;;;;;;;3.42;1.70;;;;;;;15.77;77.00;96587.56;4906360;29;20067;-78
2023/08/09 04:50:08;;;;;;;3.15;2.00;;;;;;;15.81;78.38;96586.91;4906099;29;20052;-78
2023/08/09 04:52:36;;;;;;;2.03;1.58;;;;;;;15.83;76.58;96590.16;4923230;29;20044;-78
2023/08/09 04:55:05;;;;;;;4.03;2.20;;;;;;;15.81;76.33;96586.13;4913836;29;20025;-78
2023/08/09 04:57:33;;;;;;;3.85;2.05;;;;;;;15.77;76.19;96582.31;4905932;29;20096;-78
2023/08/09 05:00:08;;;;;;;1.73;1.60;;;;;;;15.74;76.11;96590.59;4912934;29;20037;-77
2023/08/09 05:02:36;;;;;;;2.55;1.88;;;;;;;15.67;76.35;96582.75;4918722;28;20033;-77
2023/08/09 05:05:08;;;;;;;1.52;1.40;;;;;;;15.62;76.32;96583.38;4926799;28;20028;-77
2023/08/09 05:07:37;;;;;;;2.63;1.75;;;;;;;15.58;76.14;96587.47;4919015;29;20037;-78
2023/08/09 05:10:06;;;;;;;2.33;1.90;;;;;;;15.56;76.34;96589.50;4923056;29;20037;-79
2023/08/09 05:12:34;;;;;;;5.80;2.15;;;;;;;15.57;76.73;96585.88;4922893;29;20033;-80
2023/08/09 05:15:04;;;;;;;2.83;1.70;;;;;;;15.56;76.74;96578.19;4917085;29;20059;-77
2023/08/09 05:17:31;;;;;;;2.28;2.03;;;;;;;15.57;76.96;96577.97;4912080;29;20044;-77
2023/08/09 05:20:00;;;;;;;2.65;1.90;;;;;;;15.56;76.85;96576.34;4920125;29;20081;-78
2023/08/09 05:22:29;;;;;;;2.10;1.90;;;;;;;15.57;76.59;96574.53;4923599;29;20039;-78
2023/08/09 05:24:57;;;;;;;2.08;1.67;;;;;;;15.57;76.73;96575.34;4908101;29;20043;-77
2023/08/09 05:27:25;;;;;;;3.45;1.70;;;;;;;15.56;76.64;96571.09;4904305;29;20063;-77
2023/08/09 05:29:52;;;;;;;4.20;1.60;;;;;;;15.55;76.67;96566.88;4905054;29;20037;-77
2023/08/09 05:32:21;;;;;;;4.10;1.85;;;;;;;15.56;77.00;96578.97;4919896;29;20048;-77
2023/08/09 05:34:49;;;;;;;2.60;1.67;;;;;;;15.56;76.67;96571.09;4908158;29;20080;-77
2023/08/09 05:37:16;;;;;;;3.97;1.70;;;;;;;15.56;76.71;96573.72;4916106;29;20033;-78
2023/08/09 05:39:45;;;;;;;2.05;1.63;;;;;;;15.57;76.24;96577.97;4920570;29;20047;-78
2023/08/09 05:42:14;;;;;;;2.25;1.42;;;;;;;15.58;76.08;96582.19;4923262;29;20055;-77
2023/08/09 05:44:42;;;;;;;2.53;1.67;;;;;;;15.60;75.91;96572.28;4914307;29;20041;-77
2023/08/09 05:47:10;;;;;;;2.75;1.50;;;;;;;15.64;76.25;96576.09;4918933;29;20036;-79
2023/08/09 05:49:39;;;;;;;4.53;2.05;;;;;;;15.69;76.20;96580.72;4906545;29;20041;-78
2023/08/09 05:52:07;;;;;;;3.78;1.65;;;;;;;15.73;76.47;96576.66;4916878;28;20039;-78
2023/08/09 05:54:35;;;;;;;4.32;1.58;;;;;;;15.76;76.23;96578.06;4916416;29;20060;-80
2023/08/09 05:57:05;;;;;;;1.60;1.50;;;;;;;15.77;76.22;96579.69;5124591;23;20056;-78
2023/08/09 05:59:33;;;;;;;3.58;1.70;;;;;;;15.78;76.10;96581.28;4903011;29;20057;-79
2023/08/09 06:02:02;;;;;;;3.70;2.00;;;;;;;15.81;76.07;96580.88;4889303;29;20053;-79
2023/08/09 06:04:29;;;;;;;3.50;2.13;;;;;;;15.85;76.31;96585.47;4879802;29;20061;-79
2023/08/09 06:06:57;;;;;;;3.13;2.00;;;;;;;15.88;76.10;96586.88;4879923;29;20515;-79
2023/08/09 06:09:25;;;;;;;2.90;1.75;;;;;;;15.88;76.20;96592.13;4890403;29;20057;-79
2023/08/09 06:11:53;;;;;;;3.78;1.83;;;;;;;15.88;76.05;96581.59;4885477;29;20053;-79
2023/08/09 06:14:26;;;;;;;2.83;1.67;;;;;;;15.91;76.08;96585.63;4896919;29;20052;-82
2023/08/09 06:16:59;;;;;;;2.45;1.63;;;;;;;15.92;75.61;96592.47;4896174;29;20067;-84
2023/08/09 06:22:15;;;;;;;2.17;1.60;;;;;;;15.98;74.93;96586.38;5094919;23;20055;-80
2023/08/09 06:24:43;;;;;;;3.08;1.80;;;;;;;16.02;74.65;96583.06;4992697;23;1048571;-80
2023/08/09 06:27:15;;;;;;;2.13;1.55;;;;;;;16.04;73.69;96586.31;4919569;29;20057;-80
2023/08/09 06:29:45;;;;;;;2.85;1.70;;;;;;;16.10;74.28;96589.09;4916180;29;20053;-79
2023/08/09 06:32:12;;;;;;;2.83;1.80;;;;;;;16.16;74.65;96589.03;4899727;29;20029;-80
2023/08/09 06:34:40;;;;;;;3.88;1.83;;;;;;;16.22;74.64;96592.63;4891696;29;20074;-79
2023/08/09 06:37:08;;;;;;;2.00;1.75;;;;;;;16.25;74.32;96593.00;4876392;29;20526;-78
2023/08/09 06:39:37;;;;;;;3.15;1.98;;;;;;;16.29;74.76;96601.28;4861753;29;20053;-79
2023/08/09 06:42:05;;;;;;;3.38;1.73;;;;;;;16.34;73.75;96603.25;4893012;29;20105;-79
2023/08/09 06:44:33;;;;;;;4.32;1.63;;;;;;;16.39;73.90;96598.91;4891431;29;20073;-79
2023/08/09 06:47:02;;;;;;;1.63;1.50;;;;;;;16.44;74.18;96596.47;4887200;29;20526;-79
2023/08/09 06:49:30;;;;;;;1.65;1.38;;;;;;;16.50;74.99;96607.13;4888073;29;20507;-79
2023/08/09 06:52:00;;;;;;;2.75;1.30;;;;;;;16.53;74.14;96604.03;4879188;29;20068;-79
2023/08/09 06:54:29;;;;;;;2.67;1.42;;;;;;;16.56;74.46;96601.00;4880196;29;20069;-79
2023/08/09 06:56:56;;;;;;;1.90;1.15;;;;;;;16.57;71.74;96607.84;4868750;29;20060;-79
2023/08/09 06:59:24;;;;;;;1.88;1.33;;;;;;;16.60;72.13;96594.28;4872592;29;20060;-79
2023/08/09 07:01:54;;;;;;;2.50;1.48;;;;;;;16.66;73.11;96598.63;4878968;29;20049;-79
2023/08/09 07:04:24;;;;;;;2.97;1.42;;;;;;;16.71;73.48;96592.72;4879057;29;20061;-79
2023/08/09 07:06:52;;;;;;;2.58;1.30;;;;;;;16.76;71.27;96593.66;4878708;29;20685;-79
2023/08/09 07:09:22;;;;;;;1.88;1.30;;;;;;;16.82;70.71;96603.34;4879449;29;20053;-79
2023/08/09 07:11:50;;;;;;;3.00;1.42;;;;;;;16.88;70.32;96604.31;4880874;29;20057;-80
2023/08/09 07:14:18;;;;;;;2.72;1.40;;;;;;;16.91;72.11;96610.97;4889398;29;20061;-80
2023/08/09 07:16:45;;;;;;;2.38;1.33;;;;;;;16.94;70.40;96605.25;4895701;29;20053;-80
2023/08/09 07:19:13;;;;;;;1.30;1.05;;;;;;;16.95;69.68;96606.88;4893641;29;20041;-80
2023/08/09 07:21:42;;;;;;;1.80;1.05;;;;;;;16.98;69.54;96622.22;4876419;29;20052;-80
2023/08/09 07:24:13;;;;;;;2.10;1.63;;;;;;;17.01;68.96;96619.13;4862046;29;20058;-79
2023/08/09 07:26:40;;;;;;;1.15;0.98;;;;;;;17.03;69.28;96624.97;4870409;29;20049;-80
2023/08/09 07:29:08;;;;;;;2.55;1.70;;;;;;;17.01;68.57;96619.13;4878904;29;20053;-79
2023/08/09 07:31:36;;;;;;;1.80;1.10;;;;;;;17.02;70.48;96626.81;4878251;29;20045;-79
2023/08/09 07:34:05;;;;;;;2.97;1.10;;;;;;;17.02;70.18;96629.44;4878895;29;20486;-79
2023/08/09 07:36:33;;;;;;;1.35;1.10;;;;;;;17.03;71.46;96633.72;4879547;29;20412;-80
2023/08/09 07:39:10;;;;;;;1.98;1.63;;;;;;;17.01;70.42;96643.66;4865594;29;20121;-80
2023/08/09 07:41:38;;;;;;;2.08;1.33;;;;;;;17.01;71.39;96658.66;4879686;29;20060;-81
2023/08/09 07:44:06;;;;;;;2.05;1.60;;;;;;;17.00;72.95;96654.41;4882190;29;20042;-80
2023/08/09 07:46:34;;;;;;;2.45;1.38;;;;;;;17.01;73.60;96664.75;4881766;29;20117;-80
2023/08/09 07:49:02;;;;;;;4.07;1.67;;;;;;;17.01;72.29;96664.75;4873848;29;20092;-80
2023/08/09 07:51:30;;;;;;;3.30;1.20;;;;;;;16.98;73.18;96665.19;4865777;29;20053;-80
2023/08/09 07:53:58;;;;;;;2.42;2.08;;;;;;;16.97;72.54;96662.78;4869894;29;20122;-80
2023/08/09 07:56:27;;;;;;;1.83;1.40;;;;;;;16.96;73.18;96655.88;4885573;29;20057;-80
2023/08/09 07:58:55;;;;;;;3.20;2.03;;;;;;;16.98;72.20;96659.09;4883988;29;20472;-79
2023/08/09 08:01:22;;;;;;;3.38;1.60;;;;;;;17.05;71.71;96665.94;4884451;29;20513;-80
2023/08/09 08:03:50;;;;;;;6.22;2.65;;;;;;;17.09;72.09;96672.34;4883536;29;20120;-80
2023/08/09 08:06:18;;;;;;;9.10;2.67;;;;;;;17.11;72.29;96673.97;4882634;29;20705;-79
2023/08/09 08:08:46;;;;;;;10.57;3.42;;;;;;;17.12;72.53;96671.13;4883836;29;20052;-80
2023/08/09 08:11:14;;;;;;;6.72;3.33;;;;;;;17.14;73.24;96671.66;4883335;29;20452;-79
2023/08/09 08:13:43;;;;;;;2.17;1.73;;;;;;;17.18;73.85;96674.69;4883404;29;20091;-80
2023/08/09 08:16:11;;;;;;;4.07;2.00;;;;;;;17.20;72.59;96676.06;4882758;29;20052;-79
2023/08/09 08:18:38;;;;;;;1.70;1.60;;;;;;;17.21;72.06;96682.97;4889653;29;20093;-80
2023/08/09 08:21:06;;;;;;;4.57;2.08;;;;;;;17.24;73.14;96685.13;4899239;29;20063;-80
2023/08/09 08:23:34;;;;;;;5.55;2.78;;;;;;;17.28;74.23;96686.31;4898426;29;20053;-79
2023/08/09 08:26:02;;;;;;;6.97;2.22;;;;;;;17.34;74.00;96679.34;4898534;29;20090;-80
2023/08/09 08:28:30;;;;;;;3.78;2.40;;;;;;;17.43;73.63;96682.50;4898620;29;20053;-80
2023/08/09 08:31:04;;;;;;;2.55;1.92;;;;;;;17.49;74.05;96685.03;4897807;29;20432;-80
2023/08/09 08:33:32;;;;;;;5.25;1.67;;;;;;;17.53;71.33;96693.28;4885906;29;20056;-80
2023/08/09 08:36:03;;;;;;;2.45;1.27;;;;;;;17.57;71.65;96698.94;4881973;29;20063;-80
2023/08/09 08:38:51;;;;;;;2.75;1.45;;;;;;;17.63;71.71;96698.84;4916360;23;20518;-80
2023/08/09 08:41:19;;;;;;;3.47;1.42;;;;;;;17.65;69.72;96702.06;4901547;29;20066;-80
2023/08/09 08:43:47;;;;;;;3.55;1.52;;;;;;;17.66;71.57;96708.94;4905798;29;20081;-81
2023/08/09 08:46:17;;;;;;;2.20;1.85;;;;;;;17.71;71.78;96701.16;4902547;29;20061;-81
2023/08/09 08:48:48;;;;;;;1.52;1.38;;;;;;;17.75;71.08;96700.72;4877858;29;20050;-78
2023/08/09 08:51:17;;;;;;;3.20;1.50;;;;;;;17.80;70.17;96709.56;4864373;29;20142;-80
2023/08/09 08:53:46;;;;;;;2.00;1.73;;;;;;;17.83;70.11;96708.34;4864917;29;20106;-80
2023/08/09 08:56:14;;;;;;;1.77;1.27;;;;;;;17.91;70.08;96710.66;4864692;29;20077;-75
2023/08/09 08:58:42;;;;;;;2.40;1.70;;;;;;;17.94;70.46;96709.41;4870149;29;20117;-76
2023/08/09 09:01:10;;;;;;;2.85;2.03;;;;;;;17.94;71.15;96712.84;4880907;29;20113;-75
2023/08/09 09:03:40;;;;;;;1.63;1.45;;;;;;;17.89;69.65;96713.53;4879624;29;20049;-76
2023/08/09 09:06:10;;;;;;;1.52;1.35;;;;;;;17.86;69.76;96714.00;4878336;29;20060;-75
2023/08/09 09:08:41;;;;;;;5.30;1.67;;;;;;;17.85;71.87;96722.91;4881487;29;20095;-76
2023/08/09 09:11:15;;;;;;;3.08;1.77;;;;;;;17.82;69.69;96719.91;4874178;29;20101;-75
2023/08/09 09:13:42;;;;;;;2.05;1.60;;;;;;;17.79;70.02;96720.34;4863732;29;20053;-76
2023/08/09 09:16:10;;;;;;;3.15;1.50;;;;;;;17.79;71.73;96722.97;4879367;29;20067;-75
2023/08/09 09:18:43;;;;;;;2.55;1.50;;;;;;;17.77;71.51;96727.69;4880924;29;20056;-76
2023/08/09 09:21:10;;;;;;;3.15;1.60;;;;;;;17.75;71.99;96719.97;4880521;29;20056;-76
2023/08/09 09:23:39;;;;;;;2.22;1.90;;;;;;;17.74;72.47;96738.69;4881474;29;20567;-76
2023/08/09 09:26:08;;;;;;;3.08;1.73;;;;;;;17.65;73.16;96733.72;4881051;29;20056;-76
2023/08/09 09:28:39;;;;;;;3.80;1.90;;;;;;;17.61;73.68;96729.13;4881257;29;20049;-75
2023/08/09 09:31:07;;;;;;;4.82;1.90;;;;;;;17.57;74.42;96736.66;4879690;29;20076;-75
2023/08/09 09:33:35;;;;;;;3.13;2.13;;;;;;;17.52;75.04;96736.53;4880792;29;20048;-75
2023/08/09 09:36:05;;;;;;;2.30;2.10;;;;;;;17.50;76.21;96741.22;4880840;29;20057;-75
2023/08/09 09:38:33;;;;;;;2.22;1.70;;;;;;;17.47;75.84;96736.38;4881299;29;20541;-75
2023/08/09 09:41:01;;;;;;;3.45;2.28;;;;;;;17.45;75.80;96738.44;4880240;29;20053;-77
2023/08/09 09:43:32;;;;;;;1.83;1.63;;;;;;;17.40;75.63;96751.47;4879792;29;20067;-77
2023/08/09 09:46:00;;;;;;;8.50;2.55;;;;;;;17.36;75.99;96745.84;4871171;29;20120;-78
2023/08/09 09:48:29;;;;;;;3.30;1.92;;;;;;;17.34;76.38;96747.06;4880046;29;20511;-78
2023/08/09 09:50:57;;;;;;;5.50;2.88;;;;;;;17.30;76.63;96746.72;4867592;29;20053;-75
2023/08/09 09:53:26;;;;;;;3.17;2.15;;;;;;;17.28;77.26;96746.94;4862289;29;20426;-76
2023/08/09 09:55:54;;;;;;;4.50;2.38;;;;;;;17.29;77.71;96745.09;4875175;29;20467;-75
2023/08/09 09:58:22;;;;;;;4.57;2.10;;;;;;;17.28;76.84;96746.16;4881252;29;20269;-76
2023/08/09 10:00:53;;;;;;;3.50;2.40;;;;;;;17.26;78.18;96749.00;4890353;29;20041;-75
2023/08/09 10:03:23;;;;;;;3.22;2.17;;;;;;;17.24;77.29;96748.41;4892809;29;20041;-76
2023/08/09 10:05:57;;;;;;;5.03;2.53;;;;;;;17.23;77.43;96752.09;4881215;29;20056;-76
2023/08/09 10:08:28;;;;;;;4.20;2.20;;;;;;;17.22;78.05;96755.72;4865990;29;20053;-76
2023/08/09 10:10:57;;;;;;;2.97;2.20;;;;;;;17.22;77.73;96761.00;4873685;29;20408;-76
2023/08/09 10:13:26;;;;;;;3.20;2.50;;;;;;;17.21;78.68;96762.03;4879861;29;20049;-76
2023/08/09 10:15:58;;;;;;;3.47;2.53;;;;;;;17.21;79.15;96769.94;4880413;29;20053;-75
2023/08/09 10:18:34;;;;;;;2.92;2.35;;;;;;;17.16;79.65;96764.50;4879577;29;20065;-76
2023/08/09 10:21:36;;;;;;;5.60;2.60;;;;;;;17.11;80.29;96774.91;4865831;29;20505;-79
2023/08/09 10:27:59;;;;;;;3.03;2.67;;;;;;;16.98;79.19;96780.31;4875722;29;20072;-79
2023/08/09 10:34:23;;;;;;;6.32;2.70;;;;;;;16.91;81.23;96779.59;4885574;29;20033;-80
2023/08/09 10:43:59;;;;;;;4.85;3.25;;;;;;;16.72;81.26;96784.78;5154502;23;20028;-81
2023/08/09 10:50:00;;;;;;;4.90;2.28;;;;;;;16.70;82.50;96786.81;5454953;23;20119;-79
2023/08/09 10:52:45;;;;;;;3.50;2.28;;;;;;;16.71;81.69;96785.00;4922632;29;20060;-79
2023/08/09 10:55:49;;;;;;;5.35;2.40;;;;;;;16.67;81.88;96780.16;5091950;23;20047;-79
2023/08/09 10:59:03;;;;;;;3.60;2.95;;;;;;;16.71;84.16;96777.91;4922548;29;20041;-79
2023/08/09 11:05:22;;;;;;;3.80;3.25;;;;;;;16.72;84.90;96784.78;4922602;29;20039;-79
2023/08/09 11:08:33;;;;;;;5.93;3.03;;;;;;;16.70;82.94;96789.44;4922336;29;20056;-78
2023/08/09 11:14:27;;;;;;;5.20;2.53;;;;;;;16.66;82.67;96796.16;4912232;29;20083;-79
2023/08/09 11:17:24;;;;;;;3.97;2.65;;;;;;;16.67;83.61;96789.88;4922748;29;20032;-80
2023/08/09 11:30:31;;;;;;;5.03;3.22;;;;;;;16.69;84.17;96787.84;4907406;29;20036;-79
2023/08/09 11:33:48;;;;;;;4.55;2.58;;;;;;;16.71;85.23;96785.00;4892262;29;20059;-79
2023/08/09 11:39:21;;;;;;;3.22;2.38;;;;;;;16.75;85.35;96781.72;5285027;23;20060;-79
2023/08/09 11:42:34;;;;;;;2.75;2.55;;;;;;;16.80;84.45;96783.75;4925407;29;20035;-79
2023/08/09 11:48:28;;;;;;;6.38;3.10;;;;;;;16.84;85.49;96775.19;4906400;29;20044;-82
2023/08/09 11:56:48;;;;;;;6.45;3.45;;;;;;;16.96;85.41;96790.28;5182129;23;20073;-79
2023/08/09 11:59:29;;;;;;;5.70;2.72;;;;;;;16.98;85.09;96790.88;4925699;29;20044;-80
2023/08/09 12:10:11;;;;;;;4.13;2.92;;;;;;;16.98;85.65;96790.88;5366218;23;20047;-79
2023/08/09 12:12:42;;;;;;;3.47;2.67;;;;;;;17.02;85.19;96787.56;4888433;29;20122;-79
2023/08/09 12:15:11;;;;;;;3.97;2.90;;;;;;;17.08;85.81;96785.91;4886739;29;20129;-79
2023/08/09 12:17:39;;;;;;;6.35;2.83;;;;;;;17.13;85.37;96785.25;4904934;29;20484;-79
2023/08/09 12:20:09;;;;;;;7.60;2.90;;;;;;;17.17;84.87;96789.88;4897856;29;20052;-79
2023/08/09 12:22:38;;;;;;;9.68;3.10;;;;;;;17.20;84.60;96799.94;4887480;29;20053;-79
2023/08/09 12:25:09;;;;;;;3.53;2.75;;;;;;;17.24;84.47;96800.34;4887105;29;20073;-80
2023/08/09 12:27:39;;;;;;;4.77;3.20;;;;;;;17.25;85.13;96800.13;4898753;29;20057;-80
2023/08/09 12:30:10;;;;;;;4.68;3.25;;;;;;;17.26;84.62;96799.09;4886270;29;20049;-80
2023/08/09 12:32:38;;;;;;;3.20;2.92;;;;;;;17.25;84.71;96794.84;4867846;29;20057;-78
2023/08/09 12:35:07;;;;;;;6.35;3.00;;;;;;;17.28;84.24;96804.16;4884185;29;20049;-78
2023/08/09 12:37:38;;;;;;;3.20;2.90;;;;;;;17.27;84.00;96800.72;4884323;29;20045;-79
2023/08/09 12:40:09;;;;;;;4.57;2.47;;;;;;;17.28;83.75;96799.69;4887825;29;20053;-79
2023/08/09 12:42:37;;;;;;;2.88;2.50;;;;;;;17.31;83.74;96806.34;4885649;29;20093;-79
2023/08/09 12:45:05;;;;;;;6.68;2.65;;;;;;;17.35;84.27;96806.72;4888040;29;20049;-79
2023/08/09 12:47:35;;;;;;;2.90;2.55;;;;;;;17.41;84.59;96809.28;4877478;29;20057;-79
2023/08/09 12:50:02;;;;;;;3.40;2.72;;;;;;;17.44;84.71;96803.56;4881502;29;20080;-79
2023/08/09 12:52:30;;;;;;;2.65;1.90;;;;;;;17.48;83.13;96796.81;4882974;29;20108;-79
2023/08/09 12:54:58;;;;;;;3.35;2.40;;;;;;;17.54;83.77;96794.34;4878759;29;20041;-79
2023/08/09 12:57:25;;;;;;;3.67;1.88;;;;;;;17.60;84.41;96801.34;4881648;29;20072;-79
2023/08/09 12:59:54;;;;;;;2.17;1.92;;;;;;;17.60;82.15;96794.25;4884471;29;20372;-79
2023/08/09 13:02:22;;;;;;;2.08;1.70;;;;;;;17.61;81.05;96793.22;4883166;29;20048;-79
2023/08/09 13:04:51;;;;;;;3.20;2.42;;;;;;;17.63;81.94;96791.16;4881295;29;20546;-79
2023/08/09 13:07:18;;;;;;;2.75;1.88;;;;;;;17.66;80.77;96793.34;4883203;29;20076;-79
2023/08/09 13:09:46;;;;;;;2.33;1.75;;;;;;;17.68;80.55;96796.56;4880252;29;20542;-79
2023/08/09 13:12:13;;;;;;;2.92;1.80;;;;;;;17.70;79.96;96794.53;4879997;29;20056;-79
2023/08/09 13:14:41;;;;;;;2.80;1.73;;;;;;;17.75;79.34;96798.31;4880581;29;20049;-79
2023/08/09 13:17:09;;;;;;;3.28;2.10;;;;;;;17.82;80.06;96804.34;4899822;29;20041;-79
2023/08/09 13:19:37;;;;;;;5.95;2.20;;;;;;;17.86;79.53;96802.88;4871725;29;20114;-79
2023/08/09 13:22:06;;;;;;;4.45;2.08;;;;;;;17.90;79.22;96798.78;4866959;29;20112;-79
2023/08/09 13:24:34;;;;;;;2.53;2.30;;;;;;;17.92;79.54;96799.34;4884199;29;20136;-78
2023/08/09 13:27:03;;;;;;;3.25;2.50;;;;;;;17.96;80.16;96803.16;4882726;29;20045;-75
2023/08/09 13:29:30;;;;;;;8.57;2.60;;;;;;;17.98;79.68;96800.31;4880059;29;20064;-76
2023/08/09 13:31:58;;;;;;;2.95;2.38;;;;;;;18.01;79.83;96795.38;4879003;29;20057;-75
2023/08/09 13:34:29;;;;;;;5.18;2.22;;;;;;;18.05;78.98;96799.19;4880186;29;20053;-76
2023/08/09 13:36:56;;;;;;;5.78;2.45;;;;;;;18.11;78.87;96798.28;4879282;29;20695;-77
2023/08/09 13:39:26;;;;;;;3.17;2.17;;;;;;;18.16;78.80;96807.38;4880453;29;20132;-76
2023/08/09 13:41:53;;;;;;;2.65;2.17;;;;;;;18.17;77.45;96803.69;4879390;29;20135;-76
2023/08/09 13:44:21;;;;;;;3.67;1.98;;;;;;;18.19;78.24;96812.19;4879791;29;20496;-75
2023/08/09 13:46:48;;;;;;;3.75;1.85;;;;;;;18.20;78.65;96813.81;4880203;29;20088;-77
2023/08/09 13:49:16;;;;;;;3.22;2.40;;;;;;;18.22;77.77;96806.47;4880507;29;20049;-75
2023/08/09 13:51:44;;;;;;;2.92;1.70;;;;;;;18.23;77.75;96816.78;4880199;29;20523;-76
2023/08/09 13:54:11;;;;;;;4.03;2.28;;;;;;;18.25;77.58;96812.09;4879876;29;20492;-76
2023/08/09 13:56:40;;;;;;;7.25;2.20;;;;;;;18.26;77.96;96821.63;4879679;29;20101;-76
2023/08/09 13:59:08;;;;;;;3.38;2.17;;;;;;;18.25;77.27;96817.38;4879281;29;20135;-76
2023/08/09 14:01:37;;;;;;;3.13;2.25;;;;;;;18.25;76.70;96816.56;4879195;29;20113;-76
2023/08/09 14:04:04;;;;;;;2.20;1.98;;;;;;;18.24;76.93;96821.06;4879081;29;20137;-76
2023/08/09 14:06:32;;;;;;;5.32;2.03;;;;;;;18.27;77.28;96825.06;4879131;29;20057;-76